sensor_id;sensor_type;location;lat;lon;timestamp;pressure;altitude;pressure_sealevel;temperature;humidity
3150;BME280;32503;47.748;8.960;2023-05-03T00:02:08;97545.72;;;12.20;72.49
3150;BME280;32503;47.748;8.960;2023-05-03T00:04:35;97541.84;;;12.21;72.16
3150;BME280;32503;47.748;8.960;2023-05-03T00:07:04;97544.38;;;12.13;72.55
3150;BME280;32503;47.748;8.960;2023-05-03T00:09:33;97547.78;;;12.10;72.09
3150;BME280;32503;47.748;8.960;2023-05-03T00:12:00;97551.63;;;12.09;72.28
3150;BME280;32503;47.748;8.960;2023-05-03T00:14:27;97537.09;;;12.02;72.02
3150;BME280;32503;47.748;8.960;2023-05-03T00:16:54;97545.59;;;12.00;72.25
3150;BME280;32503;47.748;8.960;2023-05-03T00:19:21;97544.78;;;12.00;71.84
3150;BME280;32503;47.748;8.960;2023-05-03T00:21:54;97544.59;;;11.92;72.29
3150;BME280;32503;47.748;8.960;2023-05-03T00:24:23;97540.34;;;11.91;72.37
3150;BME280;32503;47.748;8.960;2023-05-03T00:26:50;97543.03;;;11.91;72.34
3150;BME280;32503;47.748;8.960;2023-05-03T00:29:17;97540.78;;;11.81;72.97
3150;BME280;32503;47.748;8.960;2023-05-03T00:31:46;97538.09;;;11.81;72.54
3150;BME280;32503;47.748;8.960;2023-05-03T00:34:13;97539.56;;;11.79;72.21
3150;BME280;32503;47.748;8.960;2023-05-03T00:36:40;97531.31;;;11.75;72.21
3150;BME280;32503;47.748;8.960;2023-05-03T00:39:07;97533.25;;;11.74;72.64
3150;BME280;32503;47.748;8.960;2023-05-03T00:41:35;97526.88;;;11.67;72.96
3150;BME280;32503;47.748;8.960;2023-05-03T00:44:02;97522.56;;;11.66;72.71
3150;BME280;32503;47.748;8.960;2023-05-03T00:46:30;97525.19;;;11.62;72.67
3150;BME280;32503;47.748;8.960;2023-05-03T00:48:57;97513.81;;;11.56;72.06
3150;BME280;32503;47.748;8.960;2023-05-03T00:51:26;97513.28;;;11.51;72.62
3150;BME280;32503;47.748;8.960;2023-05-03T00:53:53;97514.72;;;11.48;72.26
3150;BME280;32503;47.748;8.960;2023-05-03T00:56:20;97517.44;;;11.48;72.47
3150;BME280;32503;47.748;8.960;2023-05-03T00:58:50;97517.00;;;11.46;72.96
3150;BME280;32503;47.748;8.960;2023-05-03T01:01:18;97517.34;;;11.45;72.04
3150;BME280;32503;47.748;8.960;2023-05-03T01:03:45;97516.47;;;11.41;72.64
3150;BME280;32503;47.748;8.960;2023-05-03T01:06:21;97516.13;;;11.42;71.92
3150;BME280;32503;47.748;8.960;2023-05-03T01:09:00;97516.13;;;11.42;72.54
3150;BME280;32503;47.748;8.960;2023-05-03T01:11:36;97510.84;;;11.33;72.02
3150;BME280;32503;47.748;8.960;2023-05-03T01:14:19;97510.31;;;11.28;72.48
3150;BME280;32503;47.748;8.960;2023-05-03T01:16:52;97507.50;;;11.24;72.38
3150;BME280;32503;47.748;8.960;2023-05-03T01:19:30;97518.66;;;11.23;72.31
3150;BME280;32503;47.748;8.960;2023-05-03T01:22:09;97509.50;;;11.27;72.32
3150;BME280;32503;47.748;8.960;2023-05-03T01:24:40;97515.84;;;11.19;72.14
3150;BME280;32503;47.748;8.960;2023-05-03T01:27:13;97506.13;;;11.18;71.64
3150;BME280;32503;47.748;8.960;2023-05-03T01:29:40;97502.22;;;11.15;71.92
3150;BME280;32503;47.748;8.960;2023-05-03T01:32:16;97504.25;;;11.06;72.09
3150;BME280;32503;47.748;8.960;2023-05-03T01:35:04;97508.88;;;11.06;71.47
3150;BME280;32503;47.748;8.960;2023-05-03T01:37:34;97495.69;;;11.04;71.92
3150;BME280;32503;47.748;8.960;2023-05-03T01:40:04;97503.91;;;11.08;70.76
3150;BME280;32503;47.748;8.960;2023-05-03T01:42:36;97505.06;;;11.07;70.96
3150;BME280;32503;47.748;8.960;2023-05-03T01:45:05;97502.91;;;11.00;70.64
3150;BME280;32503;47.748;8.960;2023-05-03T01:47:33;97504.25;;;10.94;70.93
3150;BME280;32503;47.748;8.960;2023-05-03T01:50:00;97502.94;;;10.88;70.27
3150;BME280;32503;47.748;8.960;2023-05-03T01:52:27;97493.81;;;10.80;70.36
3150;BME280;32503;47.748;8.960;2023-05-03T01:54:54;97504.38;;;10.85;69.85
3150;BME280;32503;47.748;8.960;2023-05-03T01:57:22;97496.16;;;10.81;69.82
3150;BME280;32503;47.748;8.960;2023-05-03T01:59:50;97499.91;;;10.77;70.00
3150;BME280;32503;47.748;8.960;2023-05-03T02:02:17;97498.53;;;10.71;69.95
3150;BME280;32503;47.748;8.960;2023-05-03T02:04:44;97496.06;;;10.66;70.50
3150;BME280;32503;47.748;8.960;2023-05-03T02:07:11;97492.91;;;10.63;70.22
3150;BME280;32503;47.748;8.960;2023-05-03T02:09:38;97490.66;;;10.66;70.19
3150;BME280;32503;47.748;8.960;2023-05-03T02:12:06;97487.63;;;10.55;70.56
3150;BME280;32503;47.748;8.960;2023-05-03T02:14:34;97501.94;;;10.55;70.55
3150;BME280;32503;47.748;8.960;2023-05-03T02:17:02;97498.66;;;10.37;70.08
3150;BME280;32503;47.748;8.960;2023-05-03T02:19:31;97510.50;;;10.33;70.65
3150;BME280;32503;47.748;8.960;2023-05-03T02:21:58;97504.13;;;10.29;70.80
3150;BME280;32503;47.748;8.960;2023-05-03T02:24:25;97504.81;;;10.25;70.30
3150;BME280;32503;47.748;8.960;2023-05-03T02:26:51;97506.50;;;10.30;70.03
3150;BME280;32503;47.748;8.960;2023-05-03T02:29:18;97511.00;;;10.26;70.16
3150;BME280;32503;47.748;8.960;2023-05-03T02:31:45;97515.16;;;10.23;70.87
3150;BME280;32503;47.748;8.960;2023-05-03T02:34:14;97515.16;;;10.23;70.56
3150;BME280;32503;47.748;8.960;2023-05-03T02:36:41;97517.06;;;10.23;70.57
3150;BME280;32503;47.748;8.960;2023-05-03T02:39:08;97508.41;;;10.17;70.84
3150;BME280;32503;47.748;8.960;2023-05-03T02:41:35;97508.41;;;10.17;71.08
3150;BME280;32503;47.748;8.960;2023-05-03T02:44:02;97515.28;;;10.15;70.85
3150;BME280;32503;47.748;8.960;2023-05-03T02:46:29;97508.28;;;10.14;70.92
3150;BME280;32503;47.748;8.960;2023-05-03T02:48:56;97507.94;;;10.03;71.56
3150;BME280;32503;47.748;8.960;2023-05-03T02:51:25;97510.84;;;9.98;71.23
3150;BME280;32503;47.748;8.960;2023-05-03T02:53:52;97515.34;;;9.94;71.80
3150;BME280;32503;47.748;8.960;2023-05-03T02:56:20;97511.06;;;9.93;71.14
3150;BME280;32503;47.748;8.960;2023-05-03T02:58:46;97521.41;;;9.91;71.40
3150;BME280;32503;47.748;8.960;2023-05-03T03:01:13;97510.16;;;9.89;71.60
3150;BME280;32503;47.748;8.960;2023-05-03T03:03:41;97510.59;;;9.91;71.12
3150;BME280;32503;47.748;8.960;2023-05-03T03:06:08;97508.91;;;9.86;70.95
3150;BME280;32503;47.748;8.960;2023-05-03T03:08:36;97509.09;;;9.81;71.77
3150;BME280;32503;47.748;8.960;2023-05-03T03:11:04;97508.31;;;9.80;71.31
3150;BME280;32503;47.748;8.960;2023-05-03T03:13:31;97516.09;;;9.82;70.81
3150;BME280;32503;47.748;8.960;2023-05-03T03:15:58;97507.22;;;9.81;71.28
3150;BME280;32503;47.748;8.960;2023-05-03T03:18:26;97512.63;;;9.81;70.98
3150;BME280;32503;47.748;8.960;2023-05-03T03:20:53;97512.94;;;9.80;70.94
3150;BME280;32503;47.748;8.960;2023-05-03T03:23:20;97506.28;;;9.77;70.88
3150;BME280;32503;47.748;8.960;2023-05-03T03:25:48;97502.75;;;9.64;70.86
3150;BME280;32503;47.748;8.960;2023-05-03T03:28:15;97506.22;;;9.65;70.89
3150;BME280;32503;47.748;8.960;2023-05-03T03:30:42;97510.97;;;9.68;70.82
3150;BME280;32503;47.748;8.960;2023-05-03T03:33:10;97501.44;;;9.71;71.08
3150;BME280;32503;47.748;8.960;2023-05-03T03:35:38;97512.09;;;9.67;71.24
3150;BME280;32503;47.748;8.960;2023-05-03T03:38:05;97519.28;;;9.63;71.02
3150;BME280;32503;47.748;8.960;2023-05-03T03:40:32;97518.81;;;9.61;70.87
3150;BME280;32503;47.748;8.960;2023-05-03T03:43:00;97519.47;;;9.58;71.45
3150;BME280;32503;47.748;8.960;2023-05-03T03:45:28;97525.34;;;9.60;70.83
3150;BME280;32503;47.748;8.960;2023-05-03T03:47:55;97514.91;;;9.58;71.22
3150;BME280;32503;47.748;8.960;2023-05-03T03:50:23;97515.03;;;9.62;70.95
3150;BME280;32503;47.748;8.960;2023-05-03T03:52:50;97522.63;;;9.60;71.12
3150;BME280;32503;47.748;8.960;2023-05-03T03:55:17;97526.03;;;9.57;70.59
3150;BME280;32503;47.748;8.960;2023-05-03T03:57:44;97519.22;;;9.51;70.67
3150;BME280;32503;47.748;8.960;2023-05-03T04:00:13;97523.31;;;9.57;70.66
3150;BME280;32503;47.748;8.960;2023-05-03T04:02:41;97524.88;;;9.58;70.90
3150;BME280;32503;47.748;8.960;2023-05-03T04:05:08;97537.94;;;9.56;70.99
3150;BME280;32503;47.748;8.960;2023-05-03T04:07:35;97539.25;;;9.49;70.67
3150;BME280;32503;47.748;8.960;2023-05-03T04:10:03;97548.53;;;9.40;71.21
3150;BME280;32503;47.748;8.960;2023-05-03T04:12:30;97538.44;;;9.28;71.50
3150;BME280;32503;47.748;8.960;2023-05-03T04:14:58;97547.69;;;9.27;71.08
3150;BME280;32503;47.748;8.960;2023-05-03T04:17:27;97540.81;;;9.29;71.70
3150;BME280;32503;47.748;8.960;2023-05-03T04:19:54;97550.63;;;9.34;71.70
3150;BME280;32503;47.748;8.960;2023-05-03T04:22:21;97548.22;;;9.41;71.20
3150;BME280;32503;47.748;8.960;2023-05-03T04:24:49;97544.84;;;9.44;70.96
3150;BME280;32503;47.748;8.960;2023-05-03T04:27:16;97541.34;;;9.44;70.97
3150;BME280;32503;47.748;8.960;2023-05-03T04:29:43;97547.56;;;9.44;71.35
3150;BME280;32503;47.748;8.960;2023-05-03T04:32:10;97547.69;;;9.48;71.30
3150;BME280;32503;47.748;8.960;2023-05-03T04:34:40;97554.78;;;9.53;71.38
3150;BME280;32503;47.748;8.960;2023-05-03T04:37:08;97550.91;;;9.62;71.24
3150;BME280;32503;47.748;8.960;2023-05-03T04:39:35;97547.19;;;10.34;73.94
3150;BME280;32503;47.748;8.960;2023-05-03T04:42:02;97548.81;;;10.96;72.77
3150;BME280;32503;47.748;8.960;2023-05-03T04:44:30;97550.06;;;11.39;72.37
3150;BME280;32503;47.748;8.960;2023-05-03T04:46:58;97560.78;;;11.36;71.17
3150;BME280;32503;47.748;8.960;2023-05-03T04:49:25;97553.75;;;11.19;70.73
3150;BME280;32503;47.748;8.960;2023-05-03T04:51:53;97555.53;;;11.15;69.64
3150;BME280;32503;47.748;8.960;2023-05-03T04:54:21;97556.06;;;11.20;69.96
3150;BME280;32503;47.748;8.960;2023-05-03T04:56:48;97555.94;;;11.29;69.44
3150;BME280;32503;47.748;8.960;2023-05-03T04:59:16;97553.78;;;11.47;69.30
3150;BME280;32503;47.748;8.960;2023-05-03T05:01:44;97553.38;;;11.61;67.92
3150;BME280;32503;47.748;8.960;2023-05-03T05:04:11;97554.94;;;11.74;67.26
3150;BME280;32503;47.748;8.960;2023-05-03T05:06:39;97554.84;;;11.99;67.31
3150;BME280;32503;47.748;8.960;2023-05-03T05:09:20;97564.78;;;12.23;66.94
3150;BME280;32503;47.748;8.960;2023-05-03T05:11:48;97567.69;;;12.46;66.25
3150;BME280;32503;47.748;8.960;2023-05-03T05:14:15;97569.34;;;12.67;65.98
3150;BME280;32503;47.748;8.960;2023-05-03T05:16:42;97576.16;;;12.93;65.21
3150;BME280;32503;47.748;8.960;2023-05-03T05:19:10;97571.06;;;13.07;63.73
3150;BME280;32503;47.748;8.960;2023-05-03T05:21:37;97578.81;;;13.24;63.01
3150;BME280;32503;47.748;8.960;2023-05-03T05:24:05;97576.88;;;13.41;61.92
3150;BME280;32503;47.748;8.960;2023-05-03T05:26:33;97574.19;;;13.60;61.52
3150;BME280;32503;47.748;8.960;2023-05-03T05:29:00;97577.34;;;13.82;61.47
3150;BME280;32503;47.748;8.960;2023-05-03T05:31:27;97585.06;;;13.99;60.72
3150;BME280;32503;47.748;8.960;2023-05-03T05:33:55;97587.97;;;14.30;60.51
3150;BME280;32503;47.748;8.960;2023-05-03T05:36:22;97587.34;;;14.59;59.92
3150;BME280;32503;47.748;8.960;2023-05-03T05:38:49;97585.81;;;14.85;59.54
3150;BME280;32503;47.748;8.960;2023-05-03T05:41:16;97587.00;;;15.11;58.87
3150;BME280;32503;47.748;8.960;2023-05-03T05:43:44;97583.91;;;15.39;58.01
3150;BME280;32503;47.748;8.960;2023-05-03T05:46:11;97581.88;;;15.63;57.74
3150;BME280;32503;47.748;8.960;2023-05-03T05:48:38;97578.59;;;15.80;57.36
3150;BME280;32503;47.748;8.960;2023-05-03T05:51:06;97581.25;;;16.07;57.11
3150;BME280;32503;47.748;8.960;2023-05-03T05:53:33;97584.19;;;16.28;55.32
3150;BME280;32503;47.748;8.960;2023-05-03T05:56:00;97584.81;;;16.48;54.78
3150;BME280;32503;47.748;8.960;2023-05-03T05:58:27;97583.88;;;16.75;54.26
3150;BME280;32503;47.748;8.960;2023-05-03T06:00:58;97579.81;;;17.02;53.99
3150;BME280;32503;47.748;8.960;2023-05-03T06:03:26;97585.78;;;17.19;53.06
3150;BME280;32503;47.748;8.960;2023-05-03T06:05:53;97595.59;;;17.31;51.98
3150;BME280;32503;47.748;8.960;2023-05-03T06:08:20;97584.34;;;17.43;51.90
3150;BME280;32503;47.748;8.960;2023-05-03T06:10:47;97582.56;;;17.72;51.43
3150;BME280;32503;47.748;8.960;2023-05-03T06:13:14;97585.78;;;17.92;50.68
3150;BME280;32503;47.748;8.960;2023-05-03T06:15:41;97579.97;;;18.05;49.91
3150;BME280;32503;47.748;8.960;2023-05-03T06:18:09;97581.59;;;18.31;49.29
3150;BME280;32503;47.748;8.960;2023-05-03T06:20:36;97580.03;;;18.23;48.52
3150;BME280;32503;47.748;8.960;2023-05-03T06:23:03;97584.75;;;18.44;48.73
3150;BME280;32503;47.748;8.960;2023-05-03T06:25:30;97580.88;;;18.63;48.17
3150;BME280;32503;47.748;8.960;2023-05-03T06:27:57;97583.66;;;18.84;47.46
3150;BME280;32503;47.748;8.960;2023-05-03T06:30:24;97577.00;;;18.92;47.38
3150;BME280;32503;47.748;8.960;2023-05-03T06:32:53;97575.41;;;19.09;47.74
3150;BME280;32503;47.748;8.960;2023-05-03T06:35:21;97578.53;;;19.22;47.23
3150;BME280;32503;47.748;8.960;2023-05-03T06:37:48;97580.50;;;19.25;46.34
3150;BME280;32503;47.748;8.960;2023-05-03T06:40:15;97577.75;;;19.25;46.73
3150;BME280;32503;47.748;8.960;2023-05-03T06:42:43;97579.66;;;19.46;46.96
3150;BME280;32503;47.748;8.960;2023-05-03T06:45:11;97575.75;;;19.44;45.97
3150;BME280;32503;47.748;8.960;2023-05-03T06:47:38;97576.53;;;19.33;46.20
3150;BME280;32503;47.748;8.960;2023-05-03T06:50:07;97575.72;;;19.55;46.86
3150;BME280;32503;47.748;8.960;2023-05-03T06:52:36;97576.50;;;19.55;47.22
3150;BME280;32503;47.748;8.960;2023-05-03T06:55:04;97576.41;;;19.91;47.02
3150;BME280;32503;47.748;8.960;2023-05-03T06:57:32;97576.22;;;20.27;46.23
3150;BME280;32503;47.748;8.960;2023-05-03T06:59:59;97574.66;;;20.26;44.16
3150;BME280;32503;47.748;8.960;2023-05-03T07:02:26;97578.38;;;19.94;44.09
3150;BME280;32503;47.748;8.960;2023-05-03T07:04:53;97568.31;;;19.33;44.84
3150;BME280;32503;47.748;8.960;2023-05-03T07:07:20;97572.66;;;19.31;45.67
3150;BME280;32503;47.748;8.960;2023-05-03T07:09:48;97578.09;;;19.49;45.75
3150;BME280;32503;47.748;8.960;2023-05-03T07:12:15;97576.94;;;19.36;46.34
3150;BME280;32503;47.748;8.960;2023-05-03T07:14:43;97566.75;;;19.43;45.96
3150;BME280;32503;47.748;8.960;2023-05-03T07:17:10;97565.19;;;19.35;46.53
3150;BME280;32503;47.748;8.960;2023-05-03T07:19:38;97563.19;;;19.61;46.60
3150;BME280;32503;47.748;8.960;2023-05-03T07:22:05;97571.41;;;19.50;45.92
3150;BME280;32503;47.748;8.960;2023-05-03T07:24:32;97557.66;;;19.72;46.46
3150;BME280;32503;47.748;8.960;2023-05-03T07:27:00;97565.06;;;19.89;45.34
3150;BME280;32503;47.748;8.960;2023-05-03T07:29:28;97563.84;;;19.94;45.07
3150;BME280;32503;47.748;8.960;2023-05-03T07:31:55;97563.13;;;19.79;44.69
3150;BME280;32503;47.748;8.960;2023-05-03T07:34:22;97556.50;;;19.62;44.76
3150;BME280;32503;47.748;8.960;2023-05-03T07:36:49;97569.94;;;19.20;45.56
3150;BME280;32503;47.748;8.960;2023-05-03T07:39:16;97568.00;;;18.96;46.82
3150;BME280;32503;47.748;8.960;2023-05-03T07:41:44;97560.16;;;18.76;47.41
3150;BME280;32503;47.748;8.960;2023-05-03T07:44:13;97555.09;;;18.82;47.48
3150;BME280;32503;47.748;8.960;2023-05-03T07:46:40;97553.88;;;18.79;47.66
3150;BME280;32503;47.748;8.960;2023-05-03T07:49:07;97548.81;;;18.96;47.27
3150;BME280;32503;47.748;8.960;2023-05-03T07:51:35;97550.38;;;19.04;46.77
3150;BME280;32503;47.748;8.960;2023-05-03T07:54:03;97546.06;;;19.06;46.73
3150;BME280;32503;47.748;8.960;2023-05-03T07:56:31;97537.06;;;18.66;47.04
3150;BME280;32503;47.748;8.960;2023-05-03T07:58:58;97535.88;;;18.78;47.28
3150;BME280;32503;47.748;8.960;2023-05-03T08:01:26;97536.66;;;18.97;47.28
3150;BME280;32503;47.748;8.960;2023-05-03T08:03:53;97530.75;;;19.16;47.21
3150;BME280;32503;47.748;8.960;2023-05-03T08:06:20;97528.06;;;19.02;46.50
3150;BME280;32503;47.748;8.960;2023-05-03T08:08:47;97528.06;;;19.02;47.10
3150;BME280;32503;47.748;8.960;2023-05-03T08:11:15;97530.41;;;18.96;47.27
3150;BME280;32503;47.748;8.960;2023-05-03T08:13:42;97522.97;;;19.04;47.34
3150;BME280;32503;47.748;8.960;2023-05-03T08:16:09;97526.09;;;18.91;47.46
3150;BME280;32503;47.748;8.960;2023-05-03T08:18:37;97519.47;;;18.82;47.92
3150;BME280;32503;47.748;8.960;2023-05-03T08:21:04;97519.84;;;18.80;47.63
3150;BME280;32503;47.748;8.960;2023-05-03T08:23:32;97518.28;;;18.93;48.28
3150;BME280;32503;47.748;8.960;2023-05-03T08:25:59;97523.31;;;19.27;47.77
3150;BME280;32503;47.748;8.960;2023-05-03T08:28:28;97528.38;;;19.40;47.21
3150;BME280;32503;47.748;8.960;2023-05-03T08:30:56;97509.94;;;19.47;46.66
3150;BME280;32503;47.748;8.960;2023-05-03T08:33:23;97521.72;;;19.30;46.97
3150;BME280;32503;47.748;8.960;2023-05-03T08:35:52;97520.19;;;19.29;46.92
3150;BME280;32503;47.748;8.960;2023-05-03T08:38:19;97515.50;;;19.19;47.14
3150;BME280;32503;47.748;8.960;2023-05-03T08:40:47;97524.13;;;19.17;47.18
3150;BME280;32503;47.748;8.960;2023-05-03T08:43:19;97516.72;;;18.96;47.74
3150;BME280;32503;47.748;8.960;2023-05-03T08:45:47;97517.06;;;19.16;47.73
3150;BME280;32503;47.748;8.960;2023-05-03T08:48:14;97508.03;;;19.26;47.70
3150;BME280;32503;47.748;8.960;2023-05-03T08:50:41;97517.88;;;19.06;47.44
3150;BME280;32503;47.748;8.960;2023-05-03T08:53:11;97516.72;;;19.00;47.75
3150;BME280;32503;47.748;8.960;2023-05-03T08:55:38;97516.34;;;18.87;47.72
3150;BME280;32503;47.748;8.960;2023-05-03T08:58:07;97518.28;;;18.93;48.04
3150;BME280;32503;47.748;8.960;2023-05-03T09:00:37;97515.16;;;18.73;47.38
3150;BME280;32503;47.748;8.960;2023-05-03T09:03:06;97510.44;;;18.74;47.77
3150;BME280;32503;47.748;8.960;2023-05-03T09:05:35;97509.28;;;18.68;48.15
3150;BME280;32503;47.748;8.960;2023-05-03T09:08:05;97516.31;;;18.62;48.35
3150;BME280;32503;47.748;8.960;2023-05-03T09:10:37;97515.16;;;18.55;48.01
3150;BME280;32503;47.748;8.960;2023-05-03T09:13:05;97514.78;;;18.50;47.83
3150;BME280;32503;47.748;8.960;2023-05-03T09:15:34;97516.31;;;18.40;48.20
3150;BME280;32503;47.748;8.960;2023-05-03T09:18:13;97506.16;;;18.48;48.63
3150;BME280;32503;47.748;8.960;2023-05-03T09:20:42;97506.94;;;18.63;47.84
3150;BME280;32503;47.748;8.960;2023-05-03T09:23:17;97509.28;;;18.89;47.70
3150;BME280;32503;47.748;8.960;2023-05-03T09:25:49;97516.31;;;19.05;47.09
3150;BME280;32503;47.748;8.960;2023-05-03T09:28:18;97526.09;;;18.91;47.61
3150;BME280;32503;47.748;8.960;2023-05-03T09:30:46;97510.88;;;18.90;47.66
3150;BME280;32503;47.748;8.960;2023-05-03T09:33:14;97506.53;;;19.04;47.69
3150;BME280;32503;47.748;8.960;2023-05-03T09:35:56;97510.44;;;19.10;47.23
3150;BME280;32503;47.748;8.960;2023-05-03T09:38:27;97514.69;;;19.18;46.69
3150;BME280;32503;47.748;8.960;2023-05-03T09:40:56;97487.28;;;19.29;46.74
3150;BME280;32503;47.748;8.960;2023-05-03T09:43:24;97500.09;;;19.57;45.89
3150;BME280;32503;47.748;8.960;2023-05-03T09:45:51;97509.03;;;19.72;45.77
3150;BME280;32503;47.748;8.960;2023-05-03T09:48:19;97507.09;;;19.65;46.36
3150;BME280;32503;47.748;8.960;2023-05-03T09:50:48;97510.22;;;19.82;46.12
3150;BME280;32503;47.748;8.960;2023-05-03T09:53:15;97507.47;;;19.82;46.02
3150;BME280;32503;47.748;8.960;2023-05-03T09:55:44;97501.19;;;19.78;45.87
3150;BME280;32503;47.748;8.960;2023-05-03T09:58:14;97497.97;;;19.97;46.17
3150;BME280;32503;47.748;8.960;2023-05-03T10:00:44;97501.34;;;20.23;45.09
3150;BME280;32503;47.748;8.960;2023-05-03T10:03:21;97487.63;;;20.23;44.68
3150;BME280;32503;47.748;8.960;2023-05-03T10:05:50;97494.59;;;20.35;44.57
3150;BME280;32503;47.748;8.960;2023-05-03T10:08:24;97500.09;;;20.31;43.95
3150;BME280;32503;47.748;8.960;2023-05-03T10:10:53;97511.25;;;20.02;44.65
3150;BME280;32503;47.748;8.960;2023-05-03T10:13:22;97500.38;;;19.88;44.23
3150;BME280;32503;47.748;8.960;2023-05-03T10:15:55;97507.38;;;19.96;45.12
3150;BME280;32503;47.748;8.960;2023-05-03T10:18:26;97490.81;;;20.14;44.59
3150;BME280;32503;47.748;8.960;2023-05-03T10:21:00;97487.44;;;20.44;44.18
3150;BME280;32503;47.748;8.960;2023-05-03T10:23:28;97494.59;;;20.31;43.60
3150;BME280;32503;47.748;8.960;2023-05-03T10:26:14;97481.72;;;20.24;44.07
3150;BME280;32503;47.748;8.960;2023-05-03T10:28:43;97484.47;;;20.24;44.23
3150;BME280;32503;47.748;8.960;2023-05-03T10:31:43;97490.16;;;20.48;43.78
3150;BME280;32503;47.748;8.960;2023-05-03T10:34:20;97480.44;;;20.36;44.25
3150;BME280;32503;47.748;8.960;2023-05-03T10:36:47;97478.91;;;20.35;43.90
3150;BME280;32503;47.748;8.960;2023-05-03T10:39:17;97481.72;;;20.24;44.15
3150;BME280;32503;47.748;8.960;2023-05-03T10:41:45;97482.06;;;20.30;44.29
3150;BME280;32503;47.748;8.960;2023-05-03T10:44:33;97477.31;;;20.34;44.11
3150;BME280;32503;47.748;8.960;2023-05-03T10:47:09;97467.78;;;19.94;44.39
3150;BME280;32503;47.748;8.960;2023-05-03T10:49:38;97488.50;;;20.05;44.55
3150;BME280;32503;47.748;8.960;2023-05-03T10:52:44;97492.38;;;20.12;44.26
3150;BME280;32503;47.748;8.960;2023-05-03T10:55:13;97473.84;;;20.30;44.19
3150;BME280;32503;47.748;8.960;2023-05-03T10:57:42;97481.63;;;20.35;43.57
3150;BME280;32503;47.748;8.960;2023-05-03T11:00:16;97480.38;;;20.43;43.41
3150;BME280;32503;47.748;8.960;2023-05-03T11:03:23;97475.72;;;20.40;43.58
3150;BME280;32503;47.748;8.960;2023-05-03T11:05:55;97481.97;;;20.41;43.43
3150;BME280;32503;47.748;8.960;2023-05-03T11:08:24;97480.34;;;20.47;43.72
3150;BME280;32503;47.748;8.960;2023-05-03T11:10:56;97482.34;;;20.43;43.41
3150;BME280;32503;47.748;8.960;2023-05-03T11:13:24;97477.31;;;20.34;43.51
3150;BME280;32503;47.748;8.960;2023-05-03T11:15:54;97481.25;;;20.33;42.99
3150;BME280;32503;47.748;8.960;2023-05-03T11:18:24;97476.00;;;20.53;43.29
3150;BME280;32503;47.748;8.960;2023-05-03T11:20:51;97470.91;;;20.52;43.26
3150;BME280;32503;47.748;8.960;2023-05-03T11:23:24;97460.53;;;20.25;43.48
3150;BME280;32503;47.748;8.960;2023-05-03T11:25:52;97471.28;;;20.54;43.90
3150;BME280;32503;47.748;8.960;2023-05-03T11:28:20;97469.94;;;20.76;42.50
3150;BME280;32503;47.748;8.960;2023-05-03T11:30:47;97460.19;;;20.68;42.33
3150;BME280;32503;47.748;8.960;2023-05-03T11:33:16;97462.25;;;20.53;43.59
3150;BME280;32503;47.748;8.960;2023-05-03T11:35:43;97464.41;;;20.80;46.06
3150;BME280;32503;47.748;8.960;2023-05-03T11:38:10;97474.25;;;21.15;44.39
3150;BME280;32503;47.748;8.960;2023-05-03T11:40:37;97467.75;;;21.33;43.18
3150;BME280;32503;47.748;8.960;2023-05-03T11:43:05;97458.84;;;21.56;42.32
3150;BME280;32503;47.748;8.960;2023-05-03T11:45:41;97448.50;;;21.67;41.65
3150;BME280;32503;47.748;8.960;2023-05-03T11:48:10;97435.53;;;21.68;41.86
3150;BME280;32503;47.748;8.960;2023-05-03T11:50:47;97450.19;;;21.57;40.91
3150;BME280;32503;47.748;8.960;2023-05-03T11:53:17;97454.19;;;21.53;41.85
3150;BME280;32503;47.748;8.960;2023-05-03T11:55:47;97410.63;;;21.44;40.95
3150;BME280;32503;47.748;8.960;2023-05-03T11:58:16;97442.09;;;21.74;41.37
3150;BME280;32503;47.748;8.960;2023-05-03T12:00:46;97427.41;;;21.84;40.15
3150;BME280;32503;47.748;8.960;2023-05-03T12:03:17;97436.72;;;21.67;40.26
3150;BME280;32503;47.748;8.960;2023-05-03T12:05:47;97438.63;;;21.39;39.66
3150;BME280;32503;47.748;8.960;2023-05-03T12:08:15;97428.44;;;21.36;39.52
3150;BME280;32503;47.748;8.960;2023-05-03T12:10:44;97408.59;;;21.21;39.93
3150;BME280;32503;47.748;8.960;2023-05-03T12:13:11;97416.47;;;21.19;40.10
3150;BME280;32503;47.748;8.960;2023-05-03T12:15:39;97413.47;;;20.68;40.08
3150;BME280;32503;47.748;8.960;2023-05-03T12:18:09;97415.06;;;20.69;40.73
3150;BME280;32503;47.748;8.960;2023-05-03T12:20:38;97408.00;;;20.68;41.42
3150;BME280;32503;47.748;8.960;2023-05-03T12:23:08;97419.56;;;20.45;41.54
3150;BME280;32503;47.748;8.960;2023-05-03T12:25:36;97412.78;;;20.57;41.57
3150;BME280;32503;47.748;8.960;2023-05-03T12:28:04;97414.09;;;20.41;40.95
3150;BME280;32503;47.748;8.960;2023-05-03T12:30:33;97419.19;;;20.43;41.35
3150;BME280;32503;47.748;8.960;2023-05-03T12:33:00;97419.09;;;20.54;40.87
3150;BME280;32503;47.748;8.960;2023-05-03T12:35:27;97410.41;;;20.59;39.39
3150;BME280;32503;47.748;8.960;2023-05-03T12:37:54;97414.34;;;20.61;39.78
3150;BME280;32503;47.748;8.960;2023-05-03T12:40:23;97420.09;;;20.29;41.37
3150;BME280;32503;47.748;8.960;2023-05-03T12:42:53;97409.22;;;20.15;42.37
3150;BME280;32503;47.748;8.960;2023-05-03T12:45:21;97416.44;;;19.98;42.53
3150;BME280;32503;47.748;8.960;2023-05-03T12:47:48;97417.94;;;20.06;42.79
3150;BME280;32503;47.748;8.960;2023-05-03T12:50:15;97416.41;;;20.01;43.31
3150;BME280;32503;47.748;8.960;2023-05-03T12:52:42;97410.69;;;19.74;43.21
3150;BME280;32503;47.748;8.960;2023-05-03T12:55:09;97411.03;;;19.83;43.33
3150;BME280;32503;47.748;8.960;2023-05-03T12:57:38;97405.38;;;20.08;42.44
3150;BME280;32503;47.748;8.960;2023-05-03T13:00:07;97396.84;;;20.41;41.67
3150;BME280;32503;47.748;8.960;2023-05-03T13:02:35;97404.56;;;20.57;41.45
3150;BME280;32503;47.748;8.960;2023-05-03T13:05:02;97404.75;;;20.35;41.75
3150;BME280;32503;47.748;8.960;2023-05-03T13:07:31;97398.34;;;20.04;41.61
3150;BME280;32503;47.748;8.960;2023-05-03T13:09:58;97403.81;;;20.07;41.77
3150;BME280;32503;47.748;8.960;2023-05-03T13:12:26;97405.25;;;20.23;41.85
3150;BME280;32503;47.748;8.960;2023-05-03T13:14:54;97401.16;;;19.97;42.00
3150;BME280;32503;47.748;8.960;2023-05-03T13:17:24;97409.97;;;20.22;41.26
3150;BME280;32503;47.748;8.960;2023-05-03T13:19:55;97406.00;;;20.27;42.00
3150;BME280;32503;47.748;8.960;2023-05-03T13:22:22;97399.63;;;20.37;40.58